METAR Data
IDs: Format: Raw Decoded Include TAF

Data at: 1516 UTC 12 Dec 2018

PAIL 121453Z 24007KT 10SM OVC060 M09/M13 A2920 RMK AO2 SLP891 T10891128 53011
PAIL 121353Z AUTO 26004KT 8SM OVC065 M09/M12 A2919 RMK AO2 SLP888 T10941122 TSNO
PAIL 121253Z AUTO 29006KT 10SM BKN065 OVC090 M09/M14 A2917 RMK AO2 SLP883 T10891139 TSNO
PAIL 121153Z AUTO 28006KT 10SM OVC060 M11/M16 A2917 RMK AO2 SLP880 70002 T11061161 11089 21128 53010 TSNO
PAIL 121053Z AUTO 27007KT 10SM SCT060 BKN075 M12/M15 A2915 RMK AO2 SLP876 T11221150 TSNO
PAIL 120953Z AUTO 25008KT 10SM CLR M12/M15 A2914 RMK AO2 SLP873 T11221150 TSNO
PAIL 120853Z AUTO 25008KT 10SM FEW070 M10/M14 A2914 RMK AO2 SLP870 T11001139 400061106 51010 TSNO
PAIL 120753Z AUTO 33008KT 10SM CLR M09/M14 A2912 RMK AO2 SLP866 T10941139 TSNO
PAIL 120653Z AUTO 28003KT 10SM BKN070 M09/M14 A2912 RMK AO2 SLP866 T10941144 TSNO
PAIL 120553Z 28006KT 10SM BKN070 M09/M13 A2911 RMK AO2 SLP860 4/005 60001 T10941133 11056 21094 51006
PAIL 120453Z 28009KT 10SM BKN070 M08/M13 A2910 RMK AO2 SLP858 T10781128
PAIL 120353Z 27010KT 10SM BKN080 M07/M11 A2910 RMK AO2 SLP857 T10721106
PAIL 120253Z 27012KT 10SM OVC065 M07/M09 A2909 RMK AO2 SLP853 60001 T10671094 51012
PAIL 120153Z 27013KT 8SM OVC060 M06/M08 A2908 RMK AO2 SNE24 SLP851 CONDS LWR NW-NE P0000 T10611083
PAIL 120100Z 26009KT 3SM -SN BR OVC043 M06/M07 A2907 RMK AO2 P0000 T10561072
PAIL 120053Z 26011KT 2SM -SN BR OVC041 M06/M07 A2907 RMK AO2 SLP847 CONDS LWR NE-SE P0001 T10561072
PAIL 120015Z 26010G16KT 2SM -SN BR OVC031 M06/M07 A2906 RMK AO2 P0000 T10561072
PAIL 112353Z 26011G19KT 1 1/2SM -SN BR OVC029 M06/M07 A2905 RMK AO2 SNB17 SLP840 4/005 P0000 60000 T10561072 11056 21056 51025
PAIL 112338Z 26011G19KT 1 3/4SM -SN BR BKN037 OVC050 M06/M07 A2905 RMK AO2 SNB17 P0000 T10561072
PAIL 112328Z 26011G18KT 2SM -SN BR BKN041 OVC060 M06/M07 A2904 RMK AO2 SNB17 P0000 T10561072
PAIL 112325Z COR 26013G18KT 2 1/2SM -SN BR BKN034 BKN070 OVC090 M06/M07 A2904 RMK AO2 SNB17 P0000 T10561072
PAIL 112253Z 25010G16KT 10SM BKN034 BKN075 OVC085 M06/M07 A2903 RMK AO2 SLP834 T10561072
PAIL 112153Z 27007KT 10SM BKN060 OVC085 M06/M08 A2902 RMK AO2 SLP829 T10561083
PAIL 112053Z 26010KT 6SM BR OVC055 M06/M08 A2898 RMK AO2 SNE12 SLP815 P0000 60000 T10561078 53028
PAIL 111953Z 27012KT 9SM -SN OVC055 M06/M08 A2894 RMK AO2 SLP803 P0000 T10561078
PAIL 111912Z 27009G19KT 6SM -SN BR OVC033 M06/M08 A2891 RMK AO2 P0000 T10561078
PAIL 111853Z 28014G19KT 3SM -SN BR OVC025 M06/M08 A2889 RMK AO2 SLP787 P0000 T10561078
PAIL 111850Z 28010G19KT 3SM -SN BR OVC025 M06/M08 A2889 RMK AO2 P0000
PAIL 111830Z 28012G20KT 1 1/4SM -SN BR OVC025 M06/M08 A2888 RMK AO2 P0000 T10561078
PAIL 111822Z 27013KT 2SM -SN BR OVC029 M06/M08 A2887 RMK AO2 P0000 T10561078
PAIL 111753Z 29012G20KT 4SM -SN OVC032 M06/M08 A2885 RMK AO2 SLP771 4/004 P0000 60001 T10561083 10000 21056 53062
PAIL 111742Z 28011G22KT 6SM -SN BR BKN025 OVC037 M06/M08 A2884 RMK AO2 PRESRR P0000 T10561078
PAIL 111709Z 26013KT 2SM -SN BR OVC017 M05/M07 A2879 RMK AO2 PRESRR P0000 T10501067
PAIL 111653Z 26012KT 1 3/4SM -SN BR OVC017 M05/M07 A2878 RMK AO2 UPE1556SNB1556 PRESRR SLP747 P0000 T10501067
PAIL 111630Z 28011G23KT 2 1/2SM -SN OVC023 M04/M07 A2875 RMK AO2 UPE1556SNB1556 PRESRR P0000 T10441072
PAIL 111553Z 31014G23KT 9SM UP OVC034 M03/M06 A2871 RMK AO2 UPB53SNE33 SLP723 P0001 T10331061
PAIL 111533Z 31012G21KT 9SM OVC032 M02/M04 A2869 RMK AO2 SNE33 P0001 T10221044
PAIL 111516Z 28008KT 3SM -SN BR OVC026 M01/M01 A2867 RMK AO2 P0000 T10111011
PAIL 111453Z 25006KT 2SM -SN BR OVC021 M01/M01 A2866 RMK AO2 SLP708 P0000 60000 T10061006 51012
PAIL 111408Z AUTO 24009KT 2 1/2SM -SN BR OVC029 M01/M01 A2866 RMK AO2 P0000 T10061006 TSNO
PAIL 111353Z AUTO 24007KT 3SM -SN BR OVC032 M01/M01 A2865 RMK AO2 SLP705 P0000 T10061011 TSNO
PAIL 111253Z AUTO 24008KT 7SM -SN OVC050 M01/M01 A2864 RMK AO2 SNB33 SLP701 P0000 T10061011 TSNO
PAIL 111153Z AUTO 27005KT 10SM OVC060 00/M01 A2863 RMK AO2 SLP697 P0001 60012 70038 T00001006 10006 20000 51010 TSNO
PAIL 111053Z AUTO 25006KT 10SM BKN065 OVC080 00/00 A2862 RMK AO2 SNE39 SLP693 P0000 T00000000 TSNO
PAIL 111043Z AUTO 25005KT 9SM FEW016 SCT029 OVC075 00/00 A2862 RMK AO2 SNE39 P0000 T00000000 TSNO
PAIL 111020Z AUTO 25008KT 3SM -SN BR FEW008 BKN017 OVC029 01/00 A2861 RMK AO2 P0000 T00060000 TSNO
PAIL 111012Z AUTO 26005KT 8SM -SN SCT008 SCT022 OVC041 01/00 A2861 RMK AO2 P0000 T00060000 TSNO
PAIL 110953Z AUTO 25006KT 3SM -SN BR FEW023 OVC043 01/00 A2861 RMK AO2 SLP690 P0000 T00060000 TSNO
PAIL 110936Z AUTO 24007KT 4SM -SN BR FEW006 OVC037 01/00 A2861 RMK AO2 P0000 T00060000 TSNO
PAIL 110927Z AUTO 23005KT 3SM -SN BR FEW006 OVC029 01/01 A2861 RMK AO2 P0000 T00060006 TSNO
PAIL 110910Z AUTO 21006KT 3SM -SN BR OVC021 01/01 A2860 RMK AO2 P0000 T00060006 TSNO
PAIL 110858Z AUTO 21008KT 2SM -SN BR OVC015 01/00 A2860 RMK AO2 P0000 T00060000 TSNO
PAIL 110853Z AUTO 20010KT 1 1/2SM -SN BR OVC013 01/01 A2860 RMK AO2 SLP686 P0005 60011 T00060006 400440006 53007 TSNO
PAIL 110843Z AUTO 20009KT 1 1/2SM -SN BR OVC011 01/01 A2860 RMK AO2 P0005 T00060006 TSNO
PAIL 110820Z AUTO 21007KT 1SM -SN BR FEW005 OVC009 01/01 A2859 RMK AO2 P0003 T00060006 TSNO
PAIL 110807Z AUTO 23004KT 1SM -SN BR VV013 01/01 A2859 RMK AO2 P0002 T00060006 TSNO
PAIL 110753Z AUTO 24004KT 1 1/4SM -SN BR OVC017 01/01 A2859 RMK AO2 SLP684 P0002 T00060006 TSNO
PAIL 110727Z 25003KT 1 3/4SM -SN BR OVC016 01/01 A2859 RMK AO2 P0001 T00060006
PAIL 110710Z 00000KT 1 3/4SM -SN BR OVC012 01/01 A2858 RMK AO2 P0001 T00060006
PAIL 110702Z 00000KT 2 1/2SM -SN BR OVC016 01/01 A2858 RMK AO2 P0000 T00060006
PAIL 110653Z 29003KT 1 3/4SM -SN BR OVC016 01/01 A2858 RMK AO2 SLP681 P0004 T00060006
PAIL 110553Z 26006KT 1SM -SN BR VV011 01/01 A2858 RMK AO2 SLP679 4/002 P0005 60026 T00060006 10044 20006 53001
PAIL 110533Z 27005KT 1 1/2SM -SN BR OVC014 01/01 A2857 RMK AO2 P0003 T00060006
PAIL 110525Z 27005KT 2SM -SN BR OVC014 01/01 A2857 RMK AO2 P0002 T00060006
PAIL 110453Z 28005KT 1 1/4SM -SN BR OVC011 01/01 A2857 RMK AO2 SLP677 P0007 T00060006
PAIL 110443Z 28005KT 1SM -SN BR VV010 01/01 A2857 RMK AO2 P0006 T00060006
PAIL 110435Z 29007KT 1SM -SN BR VV009 01/01 A2857 RMK AO2 P0005 T00060006
PAIL 110353Z 28007KT 1SM -SN BR VV010 01/01 A2857 RMK AO2 SLP679 P0014 T00060006
PAIL 110349Z 28007KT 1SM -SN BR VV010 01/01 A2857 RMK AO2 P0013
PAIL 110340Z 27007KT 3/4SM -SN BR VV010 01/01 A2858 RMK AO2 P0012 T00060006
PAIL 110335Z 27007KT 1SM -SN BR VV009 01/01 A2858 RMK AO2 P0011 T00060006
PAIL 110321Z VRB04KT 3/4SM -SN BR VV009 01/01 A2858 RMK AO2 P0008 T00060006